createdAt,value
2023-04-13T00:00:32.283Z,6.00
2023-04-13T00:03:02.081Z,6.10
2023-04-13T00:05:30.605Z,6.10
2023-04-13T00:08:02.722Z,6.00
2023-04-13T00:10:31.569Z,6.10
2023-04-13T00:13:01.528Z,6.10
2023-04-13T00:15:30.984Z,6.00
2023-04-13T00:18:06.752Z,6.00
2023-04-13T00:20:34.818Z,6.00
2023-04-13T00:23:02.957Z,5.90
2023-04-13T00:25:31.014Z,5.90
2023-04-13T00:28:02.993Z,5.90
2023-04-13T00:30:32.387Z,5.90
2023-04-13T00:33:00.381Z,5.80
2023-04-13T00:35:28.306Z,5.80
2023-04-13T00:37:58.613Z,5.90
2023-04-13T00:40:28.066Z,5.90
2023-04-13T00:42:56.120Z,5.90
2023-04-13T00:45:24.242Z,5.90
2023-04-13T00:47:54.103Z,5.90
2023-04-13T00:50:22.217Z,5.90
2023-04-13T00:52:50.745Z,5.90
2023-04-13T00:55:21.993Z,5.80
2023-04-13T00:57:52.448Z,5.90
2023-04-13T01:00:21.867Z,5.90
2023-04-13T01:02:50.671Z,5.90
2023-04-13T01:05:20.458Z,5.90
2023-04-13T01:08:08.923Z,5.90
2023-04-13T01:10:44.128Z,5.90
2023-04-13T01:13:20.425Z,5.90
2023-04-13T01:15:56.293Z,6.00
2023-04-13T01:18:27.823Z,6.10
2023-04-13T01:20:57.799Z,6.10
2023-04-13T01:23:32.247Z,6.10
2023-04-13T01:26:06.856Z,6.20
2023-04-13T01:28:38.800Z,6.10
2023-04-13T01:31:11.653Z,6.20
2023-04-13T01:33:41.512Z,6.10
2023-04-13T01:36:12.390Z,6.20
2023-04-13T01:38:40.345Z,6.20
2023-04-13T01:41:08.723Z,6.20
2023-04-13T01:43:38.555Z,6.30
2023-04-13T01:46:11.349Z,6.30
2023-04-13T01:48:45.525Z,6.20
2023-04-13T01:51:17.493Z,6.30
2023-04-13T01:53:50.742Z,6.20
2023-04-13T01:56:22.923Z,6.30
2023-04-13T01:58:56.257Z,6.30
2023-04-13T02:01:25.334Z,6.20
2023-04-13T02:03:53.730Z,6.20
2023-04-13T02:06:21.907Z,6.30
2023-04-13T02:08:52.373Z,6.30
2023-04-13T02:11:21.410Z,6.40
2023-04-13T02:13:49.567Z,6.50
2023-04-13T02:16:19.179Z,6.50
2023-04-13T02:18:48.241Z,6.50
2023-04-13T02:21:16.893Z,6.50
2023-04-13T02:23:45.321Z,6.60
2023-04-13T02:26:14.516Z,6.50
2023-04-13T02:28:42.787Z,6.60
2023-04-13T02:31:10.765Z,6.60
2023-04-13T02:33:40.091Z,6.60
2023-04-13T02:36:09.088Z,6.60
2023-04-13T02:38:37.316Z,6.50
2023-04-13T02:41:06.274Z,6.50
2023-04-13T02:43:34.306Z,6.50
2023-04-13T02:46:02.516Z,6.40
2023-04-13T02:48:30.612Z,6.30
2023-04-13T02:51:00.052Z,6.30
2023-04-13T02:53:28.163Z,6.30
2023-04-13T02:55:56.482Z,6.30
2023-04-13T02:58:25.299Z,6.40
2023-04-13T03:00:53.274Z,6.40
2023-04-13T03:03:21.340Z,6.50
2023-04-13T03:05:50.560Z,6.50
2023-04-13T03:08:20.133Z,6.50
2023-04-13T03:10:48.123Z,6.50
2023-04-13T03:13:16.325Z,6.50
2023-04-13T03:15:44.305Z,6.50
2023-04-13T03:18:13.172Z,6.50
2023-04-13T03:20:41.811Z,6.60
2023-04-13T03:23:09.802Z,6.60
2023-04-13T03:25:39.586Z,6.70
2023-04-13T03:28:07.530Z,6.70
2023-04-13T03:30:35.931Z,6.70
2023-04-13T03:33:04.012Z,6.70
2023-04-13T03:35:32.035Z,6.80
2023-04-13T03:38:00.072Z,6.80
2023-04-13T03:40:28.165Z,6.90
2023-04-13T03:42:57.435Z,6.90
2023-04-13T03:45:25.418Z,6.90
2023-04-13T03:47:53.393Z,6.90
2023-04-13T03:50:21.603Z,6.90
2023-04-13T03:52:49.572Z,6.90
2023-04-13T03:55:18.281Z,7.00
2023-04-13T03:57:46.396Z,7.00
2023-04-13T04:00:16.804Z,7.00
2023-04-13T04:02:45.929Z,7.00
2023-04-13T04:05:16.377Z,7.00
2023-04-13T04:07:45.575Z,7.10
2023-04-13T04:10:13.610Z,7.10
2023-04-13T04:12:41.664Z,7.10
2023-04-13T04:15:10.447Z,7.10
2023-04-13T04:17:40.130Z,7.10
2023-04-13T04:20:10.293Z,7.20
2023-04-13T04:22:38.492Z,7.20
2023-04-13T04:25:07.208Z,7.20
2023-04-13T04:27:38.164Z,7.20
2023-04-13T04:30:10.569Z,7.30
2023-04-13T04:32:42.525Z,7.30
2023-04-13T04:35:12.627Z,7.40
2023-04-13T04:37:40.572Z,7.40
2023-04-13T04:40:10.451Z,7.40
2023-04-13T04:42:39.952Z,7.40
2023-04-13T04:45:12.302Z,7.40
2023-04-13T04:47:43.390Z,7.50
2023-04-13T04:50:12.583Z,7.50
2023-04-13T04:52:42.305Z,7.50
2023-04-13T04:55:11.074Z,7.50
2023-04-13T04:57:39.056Z,7.50
2023-04-13T05:00:14.949Z,7.50
2023-04-13T05:02:45.006Z,7.50
2023-04-13T05:05:16.375Z,7.50
2023-04-13T05:07:44.957Z,7.50
2023-04-13T05:10:13.222Z,7.50
2023-04-13T05:12:41.198Z,7.50
2023-04-13T05:15:10.149Z,7.50
2023-04-13T05:17:38.220Z,7.40
2023-04-13T05:20:09.155Z,7.40
2023-04-13T05:22:37.157Z,7.30
2023-04-13T05:25:06.416Z,7.30
2023-04-13T05:27:34.426Z,7.30
2023-04-13T05:30:03.515Z,7.40
2023-04-13T05:32:34.051Z,7.40
2023-04-13T05:35:02.072Z,7.40
2023-04-13T05:37:31.356Z,7.40
2023-04-13T05:39:59.476Z,7.40
2023-04-13T05:42:27.457Z,7.40
2023-04-13T05:44:55.418Z,7.40
2023-04-13T05:47:24.519Z,7.40
2023-04-13T05:49:53.096Z,7.40
2023-04-13T05:52:23.242Z,7.50
2023-04-13T05:54:52.581Z,7.50
2023-04-13T05:57:21.906Z,7.50
2023-04-13T05:59:51.753Z,7.50
2023-04-13T06:02:20.926Z,7.50
2023-04-13T06:04:49.196Z,7.50
2023-04-13T06:07:17.725Z,7.60
2023-04-13T06:09:45.949Z,7.50
2023-04-13T06:12:15.867Z,7.60
2023-04-13T06:14:44.071Z,7.60
2023-04-13T06:17:12.037Z,7.60
2023-04-13T06:19:40.068Z,7.60
2023-04-13T06:22:08.125Z,7.70
2023-04-13T06:24:37.456Z,7.80
2023-04-13T06:27:05.728Z,7.80
2023-04-13T06:29:35.062Z,7.80
2023-04-13T06:32:04.259Z,7.70
2023-04-13T06:34:32.369Z,7.70
2023-04-13T06:37:00.461Z,7.70
2023-04-13T06:39:29.062Z,7.80
2023-04-13T06:41:58.078Z,7.80
2023-04-13T06:44:26.631Z,7.80
2023-04-13T06:46:56.662Z,7.80
2023-04-13T06:49:24.694Z,7.80
2023-04-13T06:51:53.084Z,7.80
2023-04-13T06:54:21.313Z,7.70
2023-04-13T06:56:49.335Z,7.70
2023-04-13T06:59:17.324Z,7.70
2023-04-13T07:01:45.426Z,7.70
2023-04-13T07:04:15.083Z,7.70
2023-04-13T07:06:43.891Z,7.70
2023-04-13T07:09:11.894Z,7.70
2023-04-13T07:11:39.940Z,7.70
2023-04-13T07:14:07.954Z,7.70
2023-04-13T07:16:36.305Z,7.70
2023-04-13T07:19:04.289Z,7.70
2023-04-13T07:21:34.033Z,7.60
2023-04-13T07:24:02.105Z,7.60
2023-04-13T07:26:30.180Z,7.60
2023-04-13T07:28:58.586Z,7.60
2023-04-13T07:31:27.962Z,7.70
2023-04-13T07:33:56.271Z,7.70
2023-04-13T07:36:24.451Z,7.80
2023-04-13T07:38:53.829Z,7.80
2023-04-13T07:41:22.634Z,7.70
2023-04-13T07:43:51.181Z,7.60
2023-04-13T07:46:20.534Z,7.50
2023-04-13T07:48:48.564Z,7.40
2023-04-13T07:51:19.929Z,7.40
2023-04-13T07:53:48.171Z,7.40
2023-04-13T07:56:17.623Z,7.40
2023-04-13T07:58:45.742Z,7.60
2023-04-13T08:01:13.711Z,7.90
2023-04-13T08:03:42.623Z,8.20
2023-04-13T08:06:11.566Z,8.40
2023-04-13T08:08:39.906Z,8.70
2023-04-13T08:11:08.668Z,9.10
2023-04-13T08:13:38.070Z,9.40
2023-04-13T08:16:06.712Z,9.80
2023-04-13T08:18:35.126Z,9.90
2023-04-13T08:21:03.162Z,10.30
2023-04-13T08:23:31.174Z,10.70
2023-04-13T08:26:02.535Z,11.30
2023-04-13T08:28:32.492Z,11.30
2023-04-13T08:31:02.797Z,11.30
2023-04-13T08:33:31.809Z,11.10
2023-04-13T08:35:59.951Z,10.80
2023-04-13T08:38:28.273Z,10.60
2023-04-13T08:40:57.116Z,10.40
2023-04-13T08:43:25.336Z,10.20
2023-04-13T08:45:54.454Z,10.30
2023-04-13T08:48:24.173Z,10.20
2023-04-13T08:50:54.181Z,10.20
2023-04-13T08:53:22.173Z,10.30
2023-04-13T08:55:52.344Z,10.50
2023-04-13T08:58:23.361Z,10.80
2023-04-13T09:00:52.010Z,11.00
2023-04-13T09:03:25.348Z,11.40
2023-04-13T09:06:00.666Z,11.60
2023-04-13T09:08:35.816Z,12.00
2023-04-13T09:11:04.816Z,12.10
2023-04-13T09:13:33.047Z,11.80
2023-04-13T09:16:02.708Z,11.90
2023-04-13T09:18:33.586Z,12.10
2023-04-13T09:21:02.098Z,12.00
2023-04-13T09:23:30.203Z,11.70
2023-04-13T09:26:08.668Z,11.90
2023-04-13T09:28:47.533Z,12.30
2023-04-13T09:31:15.833Z,12.30
2023-04-13T09:33:49.961Z,12.60
2023-04-13T09:36:19.825Z,12.70
2023-04-13T09:38:52.555Z,12.60
2023-04-13T09:41:30.440Z,12.70
2023-04-13T09:43:58.894Z,12.60
2023-04-13T09:46:27.517Z,12.30
2023-04-13T09:49:04.971Z,12.20
2023-04-13T09:51:40.040Z,12.00
2023-04-13T09:54:09.004Z,12.00
2023-04-13T09:56:48.230Z,11.90
2023-04-13T09:59:17.248Z,11.60
2023-04-13T10:01:45.750Z,11.40
2023-04-13T10:04:15.659Z,11.20
2023-04-13T10:06:44.866Z,11.00
2023-04-13T10:09:13.085Z,11.00
2023-04-13T10:11:46.520Z,11.00
2023-04-13T10:14:20.910Z,11.10
2023-04-13T10:17:23.642Z,11.20
2023-04-13T10:19:55.150Z,11.60
2023-04-13T10:22:24.106Z,11.90
2023-04-13T10:24:53.325Z,11.90
2023-04-13T10:27:22.648Z,11.80
2023-04-13T10:29:51.077Z,11.50
2023-04-13T10:32:23.883Z,11.40
2023-04-13T10:34:53.586Z,11.00
2023-04-13T10:37:23.061Z,10.70
2023-04-13T10:40:01.929Z,10.60
2023-04-13T10:42:51.192Z,10.60
2023-04-13T10:45:21.672Z,10.60
2023-04-13T10:47:49.847Z,10.50
2023-04-13T10:50:20.100Z,10.60
2023-04-13T10:53:04.153Z,10.50
2023-04-13T10:55:32.698Z,10.60
2023-04-13T10:58:02.395Z,11.00
2023-04-13T11:00:45.682Z,11.50
2023-04-13T11:03:16.713Z,11.70
2023-04-13T11:05:47.518Z,11.90
2023-04-13T11:08:20.630Z,12.10
2023-04-13T11:10:52.827Z,12.00
2023-04-13T11:13:21.335Z,12.70
2023-04-13T11:15:50.616Z,12.80
2023-04-13T11:18:27.138Z,13.00
2023-04-13T11:20:58.125Z,13.60
2023-04-13T11:23:26.240Z,13.90
2023-04-13T11:25:56.101Z,13.80
2023-04-13T11:28:25.141Z,13.50
2023-04-13T11:30:56.043Z,13.20
2023-04-13T11:33:27.809Z,12.90
2023-04-13T11:35:58.798Z,12.90
2023-04-13T11:38:27.192Z,13.10
2023-04-13T11:41:14.392Z,13.20
2023-04-13T11:43:45.994Z,12.90
2023-04-13T11:46:16.220Z,12.50
2023-04-13T11:48:44.712Z,12.40
2023-04-13T11:51:15.286Z,12.40
2023-04-13T11:53:43.552Z,12.00
2023-04-13T11:56:11.703Z,12.00
2023-04-13T11:58:40.501Z,12.10
2023-04-13T12:01:14.287Z,12.20
2023-04-13T12:04:01.054Z,12.10
2023-04-13T12:06:35.033Z,12.10
2023-04-13T12:09:11.477Z,12.20
2023-04-13T12:11:48.493Z,12.30
2023-04-13T12:14:49.807Z,12.50
2023-04-13T12:17:37.554Z,12.50
2023-04-13T12:20:04.659Z,12.30
2023-04-13T12:22:51.365Z,12.20
2023-04-13T12:25:35.665Z,12.30
2023-04-13T12:28:05.435Z,12.50
2023-04-13T12:30:34.399Z,12.80
2023-04-13T12:33:02.755Z,13.10
2023-04-13T12:35:31.002Z,13.20
2023-04-13T12:38:00.389Z,13.10
2023-04-13T12:40:29.131Z,13.40
2023-04-13T12:42:57.212Z,13.20
2023-04-13T12:45:25.289Z,12.90
2023-04-13T12:47:53.305Z,12.80
2023-04-13T12:50:21.492Z,12.60
2023-04-13T12:52:50.133Z,12.50
2023-04-13T12:55:20.173Z,12.50
2023-04-13T12:57:48.165Z,12.40
2023-04-13T13:00:17.418Z,12.20
2023-04-13T13:02:45.947Z,11.80
2023-04-13T13:05:14.189Z,11.70
2023-04-13T13:07:42.175Z,11.50
2023-04-13T13:10:25.845Z,11.30
2023-04-13T13:13:03.871Z,11.30
2023-04-13T13:15:32.500Z,11.30
2023-04-13T13:18:02.908Z,11.40
2023-04-13T13:20:31.447Z,12.00
2023-04-13T13:22:59.829Z,12.50
2023-04-13T13:25:27.909Z,13.00
2023-04-13T13:30:30.585Z,13.80
2023-04-13T13:32:58.774Z,14.10
2023-04-13T13:35:26.794Z,14.30
2023-04-13T13:37:57.626Z,14.80
2023-04-13T13:40:25.636Z,14.90
2023-04-13T13:42:53.939Z,15.10
2023-04-13T13:45:22.724Z,15.30
2023-04-13T13:48:00.017Z,16.00
2023-04-13T13:50:28.000Z,16.20
2023-04-13T13:53:03.720Z,16.10
2023-04-13T13:55:39.049Z,15.90
2023-04-13T13:58:07.574Z,15.50
2023-04-13T14:00:35.670Z,15.00
2023-04-13T14:03:05.228Z,14.50
2023-04-13T14:05:33.386Z,14.00
2023-04-13T14:08:01.402Z,14.00
2023-04-13T14:10:29.386Z,14.30
2023-04-13T14:12:58.015Z,14.60
2023-04-13T14:15:26.023Z,14.70
2023-04-13T14:18:09.034Z,14.50
2023-04-13T14:20:39.941Z,14.20
2023-04-13T14:23:09.189Z,13.80
2023-04-13T14:25:38.291Z,13.50
2023-04-13T14:28:06.794Z,13.30
2023-04-13T14:30:34.967Z,13.00
2023-04-13T14:33:03.977Z,13.00
2023-04-13T14:35:32.362Z,12.90
2023-04-13T14:38:01.906Z,12.80
2023-04-13T14:40:30.015Z,12.70
2023-04-13T14:42:58.222Z,12.60
2023-04-13T14:45:26.668Z,12.70
2023-04-13T14:47:54.793Z,12.80
2023-04-13T14:50:24.299Z,12.70
2023-04-13T14:52:52.524Z,12.80
2023-04-13T14:55:22.832Z,12.70
2023-04-13T14:57:51.188Z,12.80
2023-04-13T15:00:22.029Z,12.70
2023-04-13T15:02:52.463Z,12.70
2023-04-13T15:05:21.346Z,12.60
2023-04-13T15:07:50.806Z,12.50
2023-04-13T15:10:19.267Z,12.50
2023-04-13T15:12:49.004Z,12.70
2023-04-13T15:15:17.159Z,12.80
2023-04-13T15:17:45.186Z,12.90
2023-04-13T15:20:13.258Z,13.10
2023-04-13T15:22:41.311Z,13.50
2023-04-13T15:25:09.903Z,14.00
2023-04-13T15:27:38.067Z,14.60
2023-04-13T15:30:10.063Z,14.80
2023-04-13T15:32:38.099Z,14.70
2023-04-13T15:35:06.490Z,14.40
2023-04-13T15:37:34.704Z,14.00
2023-04-13T15:40:07.620Z,13.90
2023-04-13T15:42:36.172Z,13.80
2023-04-13T15:45:05.286Z,13.90
2023-04-13T15:47:34.954Z,14.00
2023-04-13T15:50:04.177Z,14.20
2023-04-13T15:52:33.340Z,14.70
2023-04-13T15:55:01.601Z,15.40
2023-04-13T15:57:29.768Z,15.90
2023-04-13T15:59:57.743Z,16.00
2023-04-13T16:02:26.184Z,15.50
2023-04-13T16:04:55.823Z,15.20
2023-04-13T16:07:24.096Z,14.40
2023-04-13T16:09:56.266Z,14.00
2023-04-13T16:12:26.428Z,13.80
2023-04-13T16:14:56.110Z,13.60
2023-04-13T16:17:31.107Z,13.70
2023-04-13T16:20:18.175Z,14.10
2023-04-13T16:22:48.821Z,14.50
2023-04-13T16:25:18.755Z,14.40
2023-04-13T16:27:48.851Z,14.30
2023-04-13T16:30:20.646Z,14.20
2023-04-13T16:32:50.446Z,14.00
2023-04-13T16:35:20.158Z,13.90
2023-04-13T16:37:48.138Z,13.80
2023-04-13T16:40:16.992Z,13.80
2023-04-13T16:42:46.037Z,13.70
2023-04-13T16:45:15.160Z,13.60
2023-04-13T16:47:43.805Z,13.50
2023-04-13T16:50:13.269Z,13.40
2023-04-13T16:52:42.899Z,13.30
2023-04-13T16:55:14.025Z,13.30
2023-04-13T16:57:43.257Z,13.20
2023-04-13T17:00:12.785Z,13.20
2023-04-13T17:02:42.237Z,13.20
2023-04-13T17:05:11.611Z,13.10
2023-04-13T17:07:44.567Z,13.10
2023-04-13T17:10:14.516Z,13.10
2023-04-13T17:12:42.683Z,13.10
2023-04-13T17:15:11.458Z,13.10
2023-04-13T17:17:39.580Z,13.10
2023-04-13T17:20:09.376Z,13.00
2023-04-13T17:22:37.969Z,13.00
2023-04-13T17:25:09.026Z,12.90
2023-04-13T17:27:37.480Z,13.00
2023-04-13T17:30:07.785Z,12.90
2023-04-13T17:32:35.999Z,12.90
2023-04-13T17:35:04.412Z,12.90
2023-04-13T17:37:32.461Z,12.90
2023-04-13T17:40:01.180Z,12.80
2023-04-13T17:42:30.995Z,12.70
2023-04-13T17:44:59.018Z,12.70
2023-04-13T17:47:27.073Z,12.60
2023-04-13T17:49:55.753Z,12.50
2023-04-13T17:52:23.855Z,12.40
2023-04-13T17:54:52.020Z,12.30
2023-04-13T17:57:20.197Z,12.20
2023-04-13T17:59:49.772Z,12.10
2023-04-13T18:02:18.421Z,12.10
2023-04-13T18:04:46.643Z,12.00
2023-04-13T18:07:14.758Z,12.00
2023-04-13T18:09:42.838Z,11.90
2023-04-13T18:12:12.036Z,11.80
2023-04-13T18:14:40.160Z,11.80
2023-04-13T18:17:09.576Z,11.80
2023-04-13T18:19:37.749Z,11.70
2023-04-13T18:22:05.897Z,11.60
2023-04-13T18:24:35.231Z,11.50
2023-04-13T18:27:03.266Z,11.50
2023-04-13T18:29:31.406Z,11.40
2023-04-13T18:31:59.490Z,11.30
2023-04-13T18:34:31.346Z,11.20
2023-04-13T18:36:59.940Z,11.10
2023-04-13T18:39:28.028Z,10.90
2023-04-13T18:41:55.986Z,10.80
2023-04-13T18:44:23.984Z,10.70
2023-04-13T18:46:52.146Z,10.50
2023-04-13T18:49:20.410Z,10.40
2023-04-13T18:51:49.760Z,10.30
2023-04-13T18:54:17.867Z,10.10
2023-04-13T18:56:46.188Z,10.00
2023-04-13T18:59:14.227Z,9.90
2023-04-13T19:01:42.655Z,9.80
2023-04-13T19:04:11.015Z,9.70
2023-04-13T19:06:39.858Z,9.50
2023-04-13T19:09:09.348Z,9.40
2023-04-13T19:11:49.078Z,9.30
2023-04-13T19:14:17.151Z,9.20
2023-04-13T19:16:47.123Z,9.10
2023-04-13T19:19:16.059Z,9.00
2023-04-13T19:21:44.067Z,8.90
2023-04-13T19:24:14.052Z,8.80
2023-04-13T19:26:42.243Z,8.70
2023-04-13T19:29:12.952Z,8.60
2023-04-13T19:31:43.950Z,8.50
2023-04-13T19:34:12.717Z,8.50
2023-04-13T19:36:41.417Z,8.40
2023-04-13T19:39:10.245Z,8.30
2023-04-13T19:41:41.220Z,8.20
2023-04-13T19:44:10.145Z,8.10
2023-04-13T19:46:38.599Z,8.10
2023-04-13T19:49:06.925Z,8.00
2023-04-13T19:51:35.364Z,7.90
2023-04-13T19:54:04.951Z,7.80
2023-04-13T19:56:34.403Z,7.70
2023-04-13T19:59:05.145Z,7.70
2023-04-13T20:01:34.224Z,7.60
2023-04-13T20:04:05.030Z,7.60
2023-04-13T20:06:36.441Z,7.50
2023-04-13T20:09:11.653Z,7.40
2023-04-13T20:11:41.149Z,7.30
2023-04-13T20:14:11.433Z,7.30
2023-04-13T20:16:39.826Z,7.20
2023-04-13T20:19:09.286Z,7.10
2023-04-13T20:21:38.021Z,7.10
2023-04-13T20:24:06.390Z,7.00
2023-04-13T20:26:34.738Z,6.90
2023-04-13T20:29:05.082Z,6.90
2023-04-13T20:31:34.893Z,6.80
2023-04-13T20:34:04.001Z,6.70
2023-04-13T20:36:32.333Z,6.70
2023-04-13T20:39:00.676Z,6.60
2023-04-13T20:41:32.270Z,6.50
2023-04-13T20:44:01.414Z,6.50
2023-04-13T20:46:34.394Z,6.40
2023-04-13T20:49:05.557Z,6.40
2023-04-13T20:51:34.192Z,6.30
2023-04-13T20:54:05.273Z,6.20
2023-04-13T20:56:33.508Z,6.20
2023-04-13T20:59:02.677Z,6.10
2023-04-13T21:01:31.816Z,6.10
2023-04-13T21:04:00.227Z,6.00
2023-04-13T21:06:30.143Z,5.90
2023-04-13T21:08:58.928Z,5.90
2023-04-13T21:11:27.307Z,5.80
2023-04-13T21:13:55.469Z,5.80
2023-04-13T21:16:25.693Z,5.70
2023-04-13T21:18:53.924Z,5.60
2023-04-13T21:21:23.383Z,5.50
2023-04-13T21:23:53.632Z,5.50
2023-04-13T21:26:21.856Z,5.40
2023-04-13T21:28:49.942Z,5.40
2023-04-13T21:31:18.042Z,5.30
2023-04-13T21:33:46.606Z,5.30
2023-04-13T21:38:45.699Z,5.20
2023-04-13T21:41:18.860Z,5.10
2023-04-13T21:43:47.326Z,5.10
2023-04-13T21:46:16.523Z,5.00
2023-04-13T21:48:44.633Z,5.00
2023-04-13T21:51:12.690Z,4.90
2023-04-13T21:53:40.753Z,4.90
2023-04-13T21:56:09.122Z,4.80
2023-04-13T21:58:43.390Z,4.70
2023-04-13T22:01:12.764Z,4.60
2023-04-13T22:03:42.535Z,4.60
2023-04-13T22:06:12.096Z,4.50
2023-04-13T22:08:40.478Z,4.50
2023-04-13T22:11:08.760Z,4.40
2023-04-13T22:13:37.001Z,4.40
2023-04-13T22:16:07.284Z,4.30
2023-04-13T22:18:35.440Z,4.30
2023-04-13T22:21:03.550Z,4.20
2023-04-13T22:23:31.696Z,4.10
2023-04-13T22:26:01.438Z,4.10
2023-04-13T22:28:30.965Z,4.00
2023-04-13T22:30:59.454Z,4.00
2023-04-13T22:33:31.834Z,3.90
2023-04-13T22:36:02.396Z,3.90
2023-04-13T22:38:30.707Z,3.90
2023-04-13T22:40:58.861Z,3.90
2023-04-13T22:43:26.876Z,3.80
2023-04-13T22:45:58.521Z,3.80
2023-04-13T22:48:28.283Z,3.70
2023-04-13T22:50:57.291Z,3.70
2023-04-13T22:53:25.972Z,3.70
2023-04-13T22:55:54.259Z,3.70
2023-04-13T22:58:22.274Z,3.60
2023-04-13T23:00:50.356Z,3.60
2023-04-13T23:03:18.717Z,3.50
2023-04-13T23:05:48.303Z,3.50
2023-04-13T23:08:16.314Z,3.50
2023-04-13T23:10:44.373Z,3.40
2023-04-13T23:13:12.497Z,3.40
2023-04-13T23:15:40.677Z,3.40
2023-04-13T23:18:08.618Z,3.30
2023-04-13T23:20:36.676Z,3.30
2023-04-13T23:23:06.153Z,3.20
2023-04-13T23:25:34.222Z,3.20
2023-04-13T23:28:02.256Z,3.10
2023-04-13T23:30:30.285Z,3.10
2023-04-13T23:32:58.411Z,3.10
2023-04-13T23:35:26.506Z,3.00
2023-04-13T23:37:54.603Z,3.00
2023-04-13T23:40:24.035Z,3.00
2023-04-13T23:42:52.053Z,3.00
2023-04-13T23:45:20.177Z,3.00
2023-04-13T23:47:48.151Z,2.90
2023-04-13T23:50:17.853Z,2.90
2023-04-13T23:52:46.913Z,2.90
2023-04-13T23:55:15.013Z,2.80
2023-04-13T23:57:44.485Z,2.80
